Terminal Aerodrome Forecast
Issued by NWS Twin Cities, MN

Home | Current Version | Previous Version | Text Only | Print | Product List | Glossary Off
Versions: 1 2 3 4 5 6 7 8 9 10 11 12

000
FTUS43 KMPX 041734
TAFEAU
TAF
KEAU 041734Z 0418/0518 35015G23KT P6SM SCT050
     FM042300 36009KT P6SM SKC
     FM050200 05003KT P6SM FEW150
     FM051200 19003KT P6SM SCT050 OVC090 PROB30 0512/0517 5SM -SHRA
      OVC050
     FM051700 24007KT P6SM SCT060 BKN100=

USA.gov is the U.S. government's official web portal to all federal, state and local government web resources and services.